createdAt,value
2023-05-16T00:00:58.515Z,16.00
2023-05-16T00:03:46.812Z,14.97
2023-05-16T00:06:37.421Z,16.03
2023-05-16T00:09:25.656Z,16.63
2023-05-16T00:12:13.804Z,16.03
2023-05-16T00:15:02.024Z,17.23
2023-05-16T00:17:50.341Z,17.13
2023-05-16T00:20:38.571Z,17.23
2023-05-16T00:23:28.073Z,16.27
2023-05-16T00:26:16.252Z,14.03
2023-05-16T00:29:04.389Z,16.87
2023-05-16T00:31:52.510Z,17.73
2023-05-16T00:34:40.689Z,16.33
2023-05-16T00:37:28.833Z,17.20
2023-05-16T00:40:18.773Z,15.60
2023-05-16T00:43:07.241Z,13.83
2023-05-16T00:45:55.581Z,17.03
2023-05-16T00:48:43.907Z,17.57
2023-05-16T00:51:32.662Z,14.73
2023-05-16T00:54:22.753Z,16.53
2023-05-16T00:57:12.462Z,16.20
2023-05-16T01:00:00.924Z,16.33
2023-05-16T01:02:51.913Z,16.80
2023-05-16T01:05:40.257Z,15.87
2023-05-16T01:08:28.624Z,15.50
2023-05-16T01:11:24.687Z,17.17
2023-05-16T01:14:22.508Z,17.30
2023-05-16T01:17:19.185Z,18.70
2023-05-16T01:20:15.687Z,19.27
2023-05-16T01:23:18.716Z,19.17
2023-05-16T01:26:22.568Z,17.63
2023-05-16T01:29:11.260Z,18.10
2023-05-16T01:31:59.664Z,14.57
2023-05-16T01:34:47.892Z,19.47
2023-05-16T01:37:41.119Z,14.43
2023-05-16T01:40:36.239Z,15.80
2023-05-16T01:43:34.749Z,19.23
2023-05-16T01:46:29.922Z,16.33
2023-05-16T01:49:26.586Z,18.08
2023-05-16T01:52:20.797Z,19.93
2023-05-16T01:55:15.192Z,17.53
2023-05-16T01:58:05.588Z,17.03
2023-05-16T02:00:56.030Z,19.37
2023-05-16T02:03:44.298Z,20.40
2023-05-16T02:06:32.918Z,20.23
2023-05-16T02:09:21.476Z,19.67
2023-05-16T02:12:09.839Z,22.13
2023-05-16T02:14:57.990Z,19.43
2023-05-16T02:17:48.525Z,23.67
2023-05-16T02:20:37.040Z,22.27
2023-05-16T02:23:25.208Z,20.43
2023-05-16T02:26:13.525Z,22.60
2023-05-16T02:29:01.743Z,20.37
2023-05-16T02:31:49.880Z,20.90
2023-05-16T02:34:39.470Z,22.27
2023-05-16T02:37:28.177Z,21.90
2023-05-16T02:40:16.949Z,19.00
2023-05-16T02:43:05.122Z,22.33
2023-05-16T02:45:53.450Z,19.23
2023-05-16T02:48:41.693Z,20.00
2023-05-16T02:51:31.498Z,16.80
2023-05-16T02:54:19.983Z,16.87
2023-05-16T02:57:08.106Z,17.77
2023-05-16T02:59:56.894Z,17.13
2023-05-16T03:02:45.558Z,17.50
2023-05-16T03:05:33.858Z,13.60
2023-05-16T03:08:23.688Z,15.03
2023-05-16T03:11:12.150Z,12.10
2023-05-16T03:14:01.940Z,13.90
2023-05-16T03:16:51.086Z,13.30
2023-05-16T03:19:39.604Z,11.90
2023-05-16T03:22:27.977Z,11.87
2023-05-16T03:25:17.683Z,11.43
2023-05-16T03:28:08.079Z,13.77
2023-05-16T03:30:56.605Z,12.30
2023-05-16T03:33:45.774Z,12.90
2023-05-16T03:36:34.279Z,10.63
2023-05-16T03:39:23.310Z,11.53
2023-05-16T03:42:12.861Z,10.10
2023-05-16T03:45:01.329Z,10.37
2023-05-16T03:47:51.268Z,9.90
2023-05-16T03:50:41.165Z,7.17
2023-05-16T03:53:30.281Z,10.30
2023-05-16T03:56:18.967Z,8.43
2023-05-16T03:59:09.461Z,7.63
2023-05-16T04:01:58.173Z,7.33
2023-05-16T04:04:46.903Z,6.93
2023-05-16T04:07:35.797Z,7.63
2023-05-16T04:10:24.704Z,8.17
2023-05-16T04:13:13.450Z,7.40
2023-05-16T04:16:03.329Z,6.73
2023-05-16T04:18:52.235Z,6.97
2023-05-16T04:21:40.374Z,7.83
2023-05-16T04:24:28.912Z,6.97
2023-05-16T04:27:17.112Z,6.50
2023-05-16T04:30:05.852Z,5.83
2023-05-16T04:32:55.836Z,5.93
2023-05-16T04:35:44.235Z,6.33
2023-05-16T04:38:32.840Z,6.00
2023-05-16T04:41:22.436Z,5.10
2023-05-16T04:44:12.949Z,3.13
2023-05-16T04:47:01.778Z,2.70
2023-05-16T04:49:51.739Z,1.73
2023-05-16T04:52:41.307Z,1.60
2023-05-16T04:55:29.988Z,1.30
2023-05-16T04:58:18.537Z,1.87
2023-05-16T05:01:07.055Z,2.20
2023-05-16T05:03:55.264Z,1.67
2023-05-16T05:06:44.934Z,1.77
2023-05-16T05:09:33.282Z,2.93
2023-05-16T05:12:21.627Z,1.30
2023-05-16T05:15:10.120Z,2.47
2023-05-16T05:17:58.436Z,2.43
2023-05-16T05:20:46.705Z,1.87
2023-05-16T05:23:36.589Z,4.07
2023-05-16T05:26:26.179Z,2.10
2023-05-16T05:29:14.498Z,3.13
2023-05-16T05:32:02.811Z,2.83
2023-05-16T05:34:51.470Z,5.53
2023-05-16T05:37:39.873Z,5.40
2023-05-16T05:40:29.411Z,4.47
2023-05-16T05:43:17.815Z,4.00
2023-05-16T05:46:07.283Z,3.93
2023-05-16T05:48:55.777Z,6.40
2023-05-16T05:51:44.478Z,6.17
2023-05-16T05:54:32.882Z,5.57
2023-05-16T05:57:22.969Z,5.10
2023-05-16T06:00:12.617Z,5.10
2023-05-16T06:03:01.381Z,6.50
2023-05-16T06:05:50.024Z,4.27
2023-05-16T06:08:38.416Z,6.60
2023-05-16T06:11:27.103Z,6.37
2023-05-16T06:14:17.277Z,6.57
2023-05-16T06:17:05.897Z,6.83
2023-05-16T06:19:54.570Z,7.83
2023-05-16T06:22:43.095Z,4.23
2023-05-16T06:25:32.141Z,5.87
2023-05-16T06:28:20.294Z,4.53
2023-05-16T06:31:10.326Z,6.20
2023-05-16T06:33:58.617Z,10.83
2023-05-16T06:36:47.585Z,6.50
2023-05-16T06:39:36.110Z,7.63
2023-05-16T06:42:24.569Z,6.07
2023-05-16T06:45:13.260Z,8.90
2023-05-16T06:48:02.884Z,6.87
2023-05-16T06:51:36.476Z,8.77
2023-05-16T06:54:24.983Z,6.87
2023-05-16T06:57:13.514Z,7.77
2023-05-16T07:00:02.080Z,9.50
2023-05-16T07:02:50.684Z,4.77
2023-05-16T07:05:40.746Z,9.77
2023-05-16T07:08:29.052Z,6.97
2023-05-16T07:11:17.494Z,3.33
2023-05-16T07:14:06.291Z,7.00
2023-05-16T07:16:54.988Z,9.97
2023-05-16T07:19:43.741Z,5.07
2023-05-16T07:22:33.826Z,4.27
2023-05-16T07:25:22.014Z,6.60
2023-05-16T07:28:10.691Z,4.57
2023-05-16T07:31:00.523Z,5.47
2023-05-16T07:33:49.363Z,4.13
2023-05-16T07:36:37.813Z,9.00
2023-05-16T07:39:27.564Z,7.83
2023-05-16T07:42:15.955Z,6.20
2023-05-16T07:45:07.197Z,10.13
2023-05-16T07:47:55.684Z,8.80
2023-05-16T07:50:44.733Z,6.73
2023-05-16T07:53:33.407Z,6.60
2023-05-16T07:56:23.839Z,6.83
2023-05-16T07:59:12.536Z,7.83
2023-05-16T08:02:01.118Z,8.90
2023-05-16T08:04:50.414Z,6.37
2023-05-16T08:07:38.710Z,7.30
2023-05-16T08:10:27.053Z,8.67
2023-05-16T08:13:16.718Z,7.07
2023-05-16T08:16:05.349Z,7.70
2023-05-16T08:18:53.723Z,9.70
2023-05-16T08:21:42.145Z,6.20
2023-05-16T08:24:30.568Z,7.73
2023-05-16T08:27:19.112Z,7.70
2023-05-16T08:30:11.629Z,8.00
2023-05-16T08:33:00.206Z,7.33
2023-05-16T08:35:49.610Z,9.13
2023-05-16T08:38:38.031Z,8.20
2023-05-16T08:41:26.451Z,4.67
2023-05-16T08:44:21.500Z,5.40
2023-05-16T08:47:14.258Z,5.70
2023-05-16T08:50:05.472Z,8.43
2023-05-16T08:52:54.769Z,4.30
2023-05-16T08:55:43.740Z,5.77
2023-05-16T08:58:32.391Z,7.23
2023-05-16T09:01:21.340Z,7.57
2023-05-16T09:04:11.473Z,6.10
2023-05-16T09:07:00.025Z,5.47
2023-05-16T09:09:48.723Z,13.27
2023-05-16T09:12:37.812Z,6.80
2023-05-16T09:15:34.441Z,7.10
2023-05-16T09:18:23.380Z,5.70
2023-05-16T09:21:14.021Z,6.93
2023-05-16T09:24:06.097Z,6.93
2023-05-16T09:26:55.896Z,4.87
2023-05-16T09:29:44.657Z,4.87
2023-05-16T09:32:33.221Z,6.50
2023-05-16T09:35:35.082Z,4.57
2023-05-16T09:38:32.501Z,4.83
2023-05-16T09:41:22.716Z,7.10
2023-05-16T09:44:11.390Z,4.70
2023-05-16T09:46:59.963Z,6.03
2023-05-16T09:49:52.879Z,3.53
2023-05-16T09:52:41.902Z,4.00
2023-05-16T09:55:32.127Z,5.20
2023-05-16T09:58:20.365Z,5.00
2023-05-16T10:01:10.174Z,8.37
2023-05-16T10:03:58.878Z,6.90
2023-05-16T10:06:49.176Z,7.67
2023-05-16T10:09:38.064Z,6.27
2023-05-16T10:12:31.863Z,3.23
2023-05-16T10:15:22.325Z,5.33
2023-05-16T10:18:13.568Z,4.47
2023-05-16T10:21:08.300Z,2.77
2023-05-16T10:24:03.595Z,5.60
2023-05-16T10:26:53.716Z,3.73
2023-05-16T10:29:54.363Z,5.83
2023-05-16T10:32:43.688Z,3.97
2023-05-16T10:35:32.910Z,4.17
2023-05-16T10:38:24.056Z,5.40
2023-05-16T10:41:13.371Z,3.27
2023-05-16T10:44:02.953Z,2.83
2023-05-16T10:46:53.192Z,5.20
2023-05-16T10:49:42.905Z,3.20
2023-05-16T10:52:35.368Z,5.27
2023-05-16T10:55:24.733Z,4.97
2023-05-16T10:58:13.571Z,3.40
2023-05-16T11:01:17.684Z,4.97
2023-05-16T11:04:16.880Z,3.30
2023-05-16T11:07:05.821Z,4.83
2023-05-16T11:10:09.067Z,5.27
2023-05-16T11:13:04.755Z,5.47
2023-05-16T11:15:53.374Z,4.63
2023-05-16T11:18:52.043Z,5.40
2023-05-16T11:22:09.709Z,7.37
2023-05-16T11:25:01.310Z,3.50
2023-05-16T11:27:49.909Z,3.13
2023-05-16T11:30:42.901Z,6.20
2023-05-16T11:33:35.660Z,3.30
2023-05-16T11:36:30.785Z,4.43
2023-05-16T11:39:20.722Z,3.47
2023-05-16T11:42:09.619Z,5.50
2023-05-16T11:45:06.503Z,4.53
2023-05-16T11:47:55.765Z,1.77
2023-05-16T11:50:44.348Z,5.53
2023-05-16T11:53:33.753Z,4.40
2023-05-16T11:56:25.395Z,2.27
2023-05-16T11:59:14.294Z,2.73
2023-05-16T12:02:06.094Z,3.40
2023-05-16T12:04:55.209Z,3.43
2023-05-16T12:07:45.687Z,3.50
2023-05-16T12:10:35.250Z,4.50
2023-05-16T12:13:31.156Z,3.67
2023-05-16T12:16:19.906Z,7.50
2023-05-16T12:19:08.633Z,7.20
2023-05-16T12:21:56.919Z,5.80
2023-05-16T12:24:45.821Z,3.17
2023-05-16T12:27:34.342Z,5.65
2023-05-16T12:30:26.050Z,2.97
2023-05-16T12:33:16.546Z,4.77
2023-05-16T12:36:05.622Z,6.30
2023-05-16T12:38:54.882Z,3.03
2023-05-16T12:41:49.326Z,2.37
2023-05-16T12:44:38.048Z,3.73
2023-05-16T12:47:37.585Z,4.07
2023-05-16T12:50:29.305Z,4.30
2023-05-16T12:53:19.535Z,5.40
2023-05-16T12:56:08.017Z,3.53
2023-05-16T12:58:56.200Z,1.83
2023-05-16T13:01:46.531Z,3.97
2023-05-16T13:04:37.222Z,3.73
2023-05-16T13:07:25.671Z,4.43
2023-05-16T13:10:14.492Z,4.27
2023-05-16T13:13:04.702Z,5.10
2023-05-16T13:15:53.090Z,6.00
2023-05-16T13:18:41.751Z,7.17
2023-05-16T13:21:32.186Z,2.40
2023-05-16T13:24:20.337Z,4.03
2023-05-16T13:27:08.668Z,2.87
2023-05-16T13:29:57.232Z,2.87
2023-05-16T13:32:45.816Z,2.57
2023-05-16T13:35:34.400Z,2.87
2023-05-16T13:38:23.965Z,4.07
2023-05-16T13:41:12.458Z,3.27
2023-05-16T13:44:01.047Z,2.97
2023-05-16T13:46:49.735Z,1.83
2023-05-16T13:49:39.033Z,2.73
2023-05-16T13:52:27.226Z,2.03
2023-05-16T13:55:16.934Z,2.07
2023-05-16T13:58:05.177Z,4.87
2023-05-16T14:00:53.712Z,2.53
2023-05-16T14:03:42.312Z,2.07
2023-05-16T14:06:31.244Z,2.72
2023-05-16T14:09:19.471Z,1.70
2023-05-16T14:12:09.765Z,6.33
2023-05-16T14:14:58.110Z,4.03
2023-05-16T14:17:46.404Z,4.20
2023-05-16T14:20:34.677Z,5.80
2023-05-16T14:23:23.200Z,2.57
2023-05-16T14:26:11.826Z,2.63
2023-05-16T14:29:01.525Z,2.40
2023-05-16T14:31:49.993Z,4.47
2023-05-16T14:34:38.359Z,1.60
2023-05-16T14:37:26.688Z,1.13
2023-05-16T14:40:14.918Z,1.50
2023-05-16T14:43:05.154Z,3.77
2023-05-16T14:45:55.275Z,2.67
2023-05-16T14:48:43.614Z,2.60
2023-05-16T14:51:32.594Z,1.90
2023-05-16T14:54:21.521Z,3.13
2023-05-16T14:57:10.186Z,2.03
2023-05-16T14:59:58.695Z,4.60
2023-05-16T15:02:48.576Z,4.03
2023-05-16T15:05:37.362Z,2.33
2023-05-16T15:08:26.056Z,2.23
2023-05-16T15:11:15.039Z,3.13
2023-05-16T15:14:03.561Z,3.47
2023-05-16T15:16:52.104Z,3.50
2023-05-16T15:19:41.839Z,4.67
2023-05-16T15:22:30.690Z,2.47
2023-05-16T15:25:19.422Z,3.53
2023-05-16T15:28:07.922Z,1.57
2023-05-16T15:30:56.362Z,5.07
2023-05-16T15:33:48.199Z,6.47
2023-05-16T15:36:38.368Z,3.37
2023-05-16T15:39:26.984Z,2.80
2023-05-16T15:42:15.949Z,5.30
2023-05-16T15:45:04.607Z,2.50
2023-05-16T15:47:53.432Z,2.90
2023-05-16T15:50:41.961Z,2.67
2023-05-16T15:53:31.879Z,3.00
2023-05-16T15:56:21.535Z,2.33
2023-05-16T15:59:09.811Z,5.20
2023-05-16T16:01:58.356Z,4.10
2023-05-16T16:04:46.767Z,2.37
2023-05-16T16:07:35.133Z,2.83
2023-05-16T16:10:24.725Z,3.93
2023-05-16T16:13:13.057Z,3.10
2023-05-16T16:16:01.780Z,3.73
2023-05-16T16:18:50.523Z,3.33
2023-05-16T16:21:38.965Z,2.57
2023-05-16T16:24:27.571Z,3.00
2023-05-16T16:27:17.668Z,4.13
2023-05-16T16:30:07.243Z,4.07
2023-05-16T16:32:55.847Z,4.17
2023-05-16T16:35:45.240Z,1.80
2023-05-16T16:38:33.760Z,4.97
2023-05-16T16:41:22.346Z,3.13
2023-05-16T16:44:12.646Z,2.30
2023-05-16T16:47:00.971Z,2.75
2023-05-16T16:49:49.714Z,3.50
2023-05-16T16:52:38.126Z,3.83
2023-05-16T16:55:26.782Z,2.33
2023-05-16T16:58:15.536Z,2.40
2023-05-16T17:01:06.039Z,3.13
2023-05-16T17:03:55.486Z,4.67
2023-05-16T17:06:44.136Z,3.00
2023-05-16T17:09:33.427Z,2.87
2023-05-16T17:12:22.220Z,4.10
2023-05-16T17:15:11.933Z,3.87
2023-05-16T17:18:01.810Z,2.80
2023-05-16T17:20:50.402Z,3.30
2023-05-16T17:23:40.644Z,4.40
2023-05-16T17:26:31.754Z,3.53
2023-05-16T17:29:20.524Z,2.67
2023-05-16T17:32:09.587Z,3.97
2023-05-16T17:35:03.407Z,1.57
2023-05-16T17:37:51.777Z,3.63
2023-05-16T17:40:40.015Z,4.28
2023-05-16T17:43:30.530Z,2.97
2023-05-16T17:46:19.143Z,3.90
2023-05-16T17:49:08.158Z,3.07
2023-05-16T17:51:58.219Z,4.10
2023-05-16T17:54:46.519Z,2.50
2023-05-16T17:57:34.961Z,3.03
2023-05-16T18:00:24.266Z,4.00
2023-05-16T18:03:12.468Z,3.23
2023-05-16T18:06:00.935Z,4.87
2023-05-16T18:08:50.787Z,2.27
2023-05-16T18:11:41.038Z,2.20
2023-05-16T18:14:29.946Z,4.00
2023-05-16T18:17:18.893Z,3.67
2023-05-16T18:20:10.779Z,5.83
2023-05-16T18:23:00.212Z,4.23
2023-05-16T18:25:49.818Z,2.73
2023-05-16T18:28:38.398Z,4.10
2023-05-16T18:31:27.464Z,4.80
2023-05-16T18:34:16.064Z,2.90
2023-05-16T18:37:04.627Z,3.60
2023-05-16T18:39:53.342Z,2.90
2023-05-16T18:42:43.956Z,4.68
2023-05-16T18:45:32.607Z,3.30
2023-05-16T18:48:21.814Z,4.13
2023-05-16T18:51:13.924Z,7.00
2023-05-16T18:54:04.442Z,3.13
2023-05-16T18:56:53.816Z,3.47
2023-05-16T18:59:44.540Z,5.27
2023-05-16T19:02:41.757Z,3.93
2023-05-16T19:05:35.382Z,3.93
2023-05-16T19:08:31.247Z,5.30
2023-05-16T19:11:28.138Z,5.83
2023-05-16T19:14:19.476Z,5.40
2023-05-16T19:17:14.954Z,4.47
2023-05-16T19:20:05.890Z,4.67
2023-05-16T19:22:54.678Z,4.73
2023-05-16T19:25:47.942Z,2.67
2023-05-16T19:28:38.341Z,5.50
2023-05-16T19:31:26.571Z,5.03
2023-05-16T19:34:18.082Z,4.00
2023-05-16T19:37:09.547Z,4.10
2023-05-16T19:39:58.422Z,4.10
2023-05-16T19:42:46.668Z,4.40
2023-05-16T19:45:35.028Z,3.53
2023-05-16T19:48:23.736Z,3.83
2023-05-16T19:51:13.416Z,5.10
2023-05-16T19:54:01.588Z,4.80
2023-05-16T19:56:49.787Z,5.37
2023-05-16T19:59:37.971Z,6.33
2023-05-16T20:02:26.259Z,5.20
2023-05-16T20:05:19.780Z,6.10
2023-05-16T20:08:11.185Z,5.00
2023-05-16T20:10:59.541Z,6.50
2023-05-16T20:13:48.211Z,5.77
2023-05-16T20:16:36.564Z,6.50
2023-05-16T20:19:26.244Z,8.47
2023-05-16T20:22:14.717Z,6.00
2023-05-16T20:25:04.748Z,8.97
2023-05-16T20:27:52.985Z,6.85
2023-05-16T20:30:42.432Z,6.63
2023-05-16T20:33:30.818Z,5.87
2023-05-16T20:36:19.184Z,6.33
2023-05-16T20:39:09.127Z,5.73
2023-05-16T20:41:58.870Z,7.47
2023-05-16T20:44:48.006Z,8.30
2023-05-16T20:47:36.321Z,7.20
2023-05-16T20:50:24.573Z,6.47
2023-05-16T20:53:12.956Z,7.77
2023-05-16T20:56:01.298Z,4.33
2023-05-16T20:58:51.099Z,6.83
2023-05-16T21:01:39.342Z,7.07
2023-05-16T21:04:27.929Z,8.37
2023-05-16T21:07:16.452Z,5.57
2023-05-16T21:10:05.125Z,4.83
2023-05-16T21:12:53.337Z,5.67
2023-05-16T21:15:42.933Z,6.83
2023-05-16T21:18:31.446Z,6.53
2023-05-16T21:21:19.782Z,6.90
2023-05-16T21:24:08.489Z,4.10
2023-05-16T21:26:56.802Z,4.50
2023-05-16T21:29:45.031Z,5.63
2023-05-16T21:32:34.826Z,3.33
2023-05-16T21:35:23.342Z,4.17
2023-05-16T21:38:11.501Z,4.87
2023-05-16T21:40:59.901Z,6.10
2023-05-16T21:43:48.178Z,5.43
2023-05-16T21:46:36.425Z,5.40
2023-05-16T21:49:26.103Z,3.10
2023-05-16T21:52:14.372Z,3.97
2023-05-16T21:55:02.520Z,5.07
2023-05-16T21:57:50.614Z,5.03
2023-05-16T22:00:38.751Z,4.43
2023-05-16T22:03:26.945Z,5.30
2023-05-16T22:06:16.576Z,6.47
2023-05-16T22:09:05.126Z,7.87
2023-05-16T22:11:53.318Z,7.67
2023-05-16T22:14:41.498Z,4.33
2023-05-16T22:17:29.744Z,4.80
2023-05-16T22:20:18.316Z,6.57
2023-05-16T22:23:08.098Z,5.13
2023-05-16T22:25:56.746Z,4.00
2023-05-16T22:28:44.914Z,3.83
2023-05-16T22:31:33.369Z,5.40
2023-05-16T22:34:21.896Z,5.07
2023-05-16T22:37:11.110Z,4.70
2023-05-16T22:40:00.857Z,4.83
2023-05-16T22:42:49.746Z,4.27
2023-05-16T22:45:37.971Z,3.30
2023-05-16T22:48:26.334Z,5.50
2023-05-16T22:51:14.737Z,5.87
2023-05-16T22:54:03.016Z,5.53
2023-05-16T22:56:52.874Z,4.57
2023-05-16T22:59:40.992Z,4.47
2023-05-16T23:02:29.246Z,6.03
2023-05-16T23:05:17.496Z,5.17
2023-05-16T23:08:06.212Z,5.27
2023-05-16T23:10:54.528Z,3.97
2023-05-16T23:13:44.124Z,5.27
2023-05-16T23:16:32.608Z,5.23
2023-05-16T23:19:20.936Z,6.47
2023-05-16T23:22:09.359Z,5.17
2023-05-16T23:24:58.139Z,5.33
2023-05-16T23:27:46.344Z,7.07
2023-05-16T23:30:36.589Z,6.07
2023-05-16T23:33:24.751Z,4.73
2023-05-16T23:36:13.031Z,5.00
2023-05-16T23:39:01.280Z,7.87
2023-05-16T23:41:49.499Z,6.37
2023-05-16T23:44:40.101Z,5.73
2023-05-16T23:47:29.704Z,4.83
2023-05-16T23:50:18.107Z,7.00
2023-05-16T23:53:06.583Z,7.50
2023-05-16T23:55:54.959Z,4.23
2023-05-16T23:58:43.141Z,6.30
